createdAt,value
2022-12-06T00:05:09.763Z,3.15
2022-12-06T00:15:13.837Z,3.67
2022-12-06T00:25:16.606Z,3.40
2022-12-06T00:35:20.960Z,2.63
2022-12-06T00:45:23.623Z,3.20
2022-12-06T00:55:27.657Z,2.85
2022-12-06T01:05:30.558Z,2.83
2022-12-06T01:15:37.230Z,2.65
2022-12-06T01:25:39.938Z,2.67
2022-12-06T01:35:44.762Z,2.03
2022-12-06T01:45:47.587Z,2.40
2022-12-06T01:55:53.037Z,2.53
2022-12-06T02:05:57.367Z,2.95
2022-12-06T02:16:11.390Z,2.08
2022-12-06T02:26:25.205Z,2.83
2022-12-06T02:36:33.482Z,2.15
2022-12-06T02:46:39.200Z,2.15
2022-12-06T02:56:43.326Z,1.50
2022-12-06T03:07:06.239Z,1.83
2022-12-06T03:17:17.591Z,1.85
2022-12-06T03:27:24.027Z,1.30
2022-12-06T03:37:30.776Z,1.50
2022-12-06T03:47:38.227Z,1.50
2022-12-06T03:57:42.269Z,1.15
2022-12-06T04:07:44.999Z,0.98
2022-12-06T04:18:07.129Z,1.23
2022-12-06T04:28:27.832Z,1.30
2022-12-06T04:38:40.622Z,1.13
2022-12-06T04:48:43.715Z,1.40
2022-12-06T04:58:47.968Z,0.90
2022-12-06T05:08:50.650Z,1.10
2022-12-06T05:18:54.722Z,1.20
2022-12-06T05:28:57.968Z,1.15
2022-12-06T05:39:02.027Z,1.00
2022-12-06T05:49:04.739Z,1.60
2022-12-06T05:59:08.766Z,1.33
2022-12-06T06:09:11.457Z,1.58
2022-12-06T06:19:15.509Z,2.08
2022-12-06T06:29:18.193Z,1.67
2022-12-06T06:39:22.239Z,2.00
2022-12-06T06:49:25.106Z,1.70
2022-12-06T06:59:29.302Z,2.03
2022-12-06T07:09:32.464Z,1.90
2022-12-06T07:19:36.534Z,1.80
2022-12-06T07:29:39.323Z,1.85
2022-12-06T07:39:44.048Z,1.90
2022-12-06T07:49:46.772Z,1.90
2022-12-06T07:59:50.970Z,1.52
2022-12-06T08:09:54.320Z,1.27
2022-12-06T08:19:58.670Z,1.00
2022-12-06T08:30:01.797Z,1.30
2022-12-06T08:40:07.795Z,1.73
2022-12-06T08:50:10.977Z,1.70
2022-12-06T09:00:17.260Z,1.83
2022-12-06T09:10:20.301Z,1.98
2022-12-06T09:20:24.422Z,2.15
2022-12-06T09:30:27.575Z,2.03
2022-12-06T09:40:39.780Z,1.88
2022-12-06T09:50:58.416Z,2.00
2022-12-06T10:01:12.108Z,2.55
2022-12-06T10:11:25.207Z,1.88
2022-12-06T10:21:44.862Z,2.22
2022-12-06T10:31:57.744Z,2.50
2022-12-06T10:42:05.816Z,2.38
2022-12-06T10:52:20.944Z,2.03
2022-12-06T11:02:35.321Z,1.77
2022-12-06T11:12:40.371Z,2.35
2022-12-06T11:22:53.428Z,1.65
2022-12-06T11:32:56.550Z,2.10
2022-12-06T11:43:06.020Z,2.13
2022-12-06T11:53:17.777Z,2.10
2022-12-06T12:03:29.834Z,1.80
2022-12-06T12:13:45.709Z,1.10
2022-12-06T12:23:49.712Z,1.40
2022-12-06T12:34:19.160Z,1.60
2022-12-06T12:44:37.521Z,1.70
2022-12-06T12:54:41.303Z,2.58
2022-12-06T13:04:50.769Z,3.90
2022-12-06T13:15:06.298Z,2.30
2022-12-06T13:25:12.359Z,2.33
2022-12-06T13:35:24.719Z,3.00
2022-12-06T13:45:45.192Z,2.60
2022-12-06T13:55:59.696Z,2.60
2022-12-06T14:06:14.252Z,2.10
2022-12-06T14:16:23.122Z,1.83
2022-12-06T14:26:29.190Z,2.58
2022-12-06T14:36:35.017Z,2.67
2022-12-06T14:46:40.229Z,3.45
2022-12-06T14:56:45.121Z,3.88
2022-12-06T15:06:55.873Z,4.00
2022-12-06T15:17:01.362Z,4.03
2022-12-06T15:27:05.364Z,3.45
2022-12-06T15:37:37.529Z,4.10
2022-12-06T15:47:32.690Z,4.53
2022-12-06T15:57:35.343Z,4.25
2022-12-06T16:07:39.407Z,4.20
2022-12-06T16:17:42.320Z,7.75
2022-12-06T16:27:46.338Z,6.97
2022-12-06T16:37:49.010Z,6.95
2022-12-06T16:47:53.099Z,7.55
2022-12-06T16:57:55.765Z,7.57
2022-12-06T17:07:59.862Z,6.72
2022-12-06T17:18:02.583Z,7.05
2022-12-06T17:28:06.653Z,6.47
2022-12-06T17:38:09.283Z,4.70
2022-12-06T17:48:13.354Z,4.93
2022-12-06T17:58:16.044Z,4.28
2022-12-06T18:08:20.196Z,2.88
2022-12-06T18:18:22.915Z,3.85
2022-12-06T18:28:27.163Z,4.72
2022-12-06T18:38:30.274Z,6.13
2022-12-06T18:48:38.477Z,6.55
2022-12-06T18:58:41.587Z,5.78
2022-12-06T19:08:46.294Z,6.18
2022-12-06T19:18:49.213Z,4.88
2022-12-06T19:28:53.528Z,4.88
2022-12-06T19:38:56.641Z,5.93
2022-12-06T19:49:05.316Z,7.43
2022-12-06T19:59:12.053Z,5.50
2022-12-06T20:09:17.133Z,5.45
2022-12-06T20:19:20.871Z,6.63
2022-12-06T20:29:27.241Z,5.40
2022-12-06T20:39:29.954Z,6.20
2022-12-06T20:49:34.055Z,5.95
2022-12-06T20:59:37.461Z,5.38
2022-12-06T21:09:41.609Z,6.55
2022-12-06T21:19:44.344Z,5.88
2022-12-06T21:29:48.424Z,6.30
2022-12-06T21:39:51.136Z,5.68
2022-12-06T21:49:55.526Z,5.57
2022-12-06T21:59:58.465Z,5.95
2022-12-06T22:10:03.377Z,5.93
2022-12-06T22:20:07.889Z,5.82
2022-12-06T22:30:12.709Z,3.75
2022-12-06T22:40:15.514Z,3.70
2022-12-06T22:50:19.712Z,2.75
2022-12-06T23:00:22.374Z,3.05
2022-12-06T23:10:26.447Z,3.58
2022-12-06T23:20:29.147Z,2.67
2022-12-06T23:30:33.558Z,3.22
2022-12-06T23:40:36.248Z,2.28
2022-12-06T23:50:40.316Z,3.42
